sensor_id;sensor_type;location;lat;lon;timestamp;P1;durP1;ratioP1;P2;durP2;ratioP2
67442;SDS011;54311;51.726;5.154;2024-01-30T00:02:09;17.10;;;15.50;;
67442;SDS011;54311;51.726;5.154;2024-01-30T00:04:35;16.60;;;15.00;;
67442;SDS011;54311;51.726;5.154;2024-01-30T00:07:00;17.50;;;15.82;;
67442;SDS011;54311;51.726;5.154;2024-01-30T00:09:25;17.17;;;14.70;;
67442;SDS011;54311;51.726;5.154;2024-01-30T00:11:51;17.13;;;15.25;;
67442;SDS011;54311;51.726;5.154;2024-01-30T00:14:16;16.75;;;15.15;;
67442;SDS011;54311;51.726;5.154;2024-01-30T00:16:41;16.05;;;14.70;;
67442;SDS011;54311;51.726;5.154;2024-01-30T00:19:07;19.70;;;15.95;;
67442;SDS011;54311;51.726;5.154;2024-01-30T00:21:33;17.52;;;15.18;;
67442;SDS011;54311;51.726;5.154;2024-01-30T00:23:58;19.98;;;16.05;;
67442;SDS011;54311;51.726;5.154;2024-01-30T00:26:24;16.50;;;15.00;;
67442;SDS011;54311;51.726;5.154;2024-01-30T00:28:49;19.25;;;15.80;;
67442;SDS011;54311;51.726;5.154;2024-01-30T00:31:14;23.10;;;15.25;;
67442;SDS011;54311;51.726;5.154;2024-01-30T00:33:41;17.50;;;15.75;;
67442;SDS011;54311;51.726;5.154;2024-01-30T00:36:07;16.52;;;15.05;;
67442;SDS011;54311;51.726;5.154;2024-01-30T00:38:33;16.98;;;15.38;;
67442;SDS011;54311;51.726;5.154;2024-01-30T00:40:58;16.52;;;15.02;;
67442;SDS011;54311;51.726;5.154;2024-01-30T00:43:24;17.50;;;15.82;;
67442;SDS011;54311;51.726;5.154;2024-01-30T00:45:52;17.00;;;15.25;;
67442;SDS011;54311;51.726;5.154;2024-01-30T00:48:17;17.10;;;15.57;;
67442;SDS011;54311;51.726;5.154;2024-01-30T00:50:43;17.17;;;15.48;;
67442;SDS011;54311;51.726;5.154;2024-01-30T00:53:08;17.95;;;15.95;;
67442;SDS011;54311;51.726;5.154;2024-01-30T00:55:34;18.60;;;16.63;;
67442;SDS011;54311;51.726;5.154;2024-01-30T00:57:59;17.83;;;15.95;;
67442;SDS011;54311;51.726;5.154;2024-01-30T01:00:24;18.60;;;16.77;;
67442;SDS011;54311;51.726;5.154;2024-01-30T01:03:00;19.42;;;15.90;;
67442;SDS011;54311;51.726;5.154;2024-01-30T01:05:25;17.63;;;16.02;;
67442;SDS011;54311;51.726;5.154;2024-01-30T01:07:51;17.40;;;15.82;;
67442;SDS011;54311;51.726;5.154;2024-01-30T01:10:16;17.67;;;15.80;;
67442;SDS011;54311;51.726;5.154;2024-01-30T01:12:42;18.20;;;16.27;;
67442;SDS011;54311;51.726;5.154;2024-01-30T01:15:08;18.17;;;16.33;;
67442;SDS011;54311;51.726;5.154;2024-01-30T01:17:35;18.23;;;16.38;;
67442;SDS011;54311;51.726;5.154;2024-01-30T01:20:04;17.58;;;15.77;;
67442;SDS011;54311;51.726;5.154;2024-01-30T01:22:30;17.80;;;15.57;;
67442;SDS011;54311;51.726;5.154;2024-01-30T01:24:56;18.98;;;16.98;;
67442;SDS011;54311;51.726;5.154;2024-01-30T01:27:21;17.98;;;16.17;;
67442;SDS011;54311;51.726;5.154;2024-01-30T01:29:46;19.50;;;16.30;;
67442;SDS011;54311;51.726;5.154;2024-01-30T01:32:12;16.10;;;14.55;;
67442;SDS011;54311;51.726;5.154;2024-01-30T01:34:37;20.90;;;16.75;;
67442;SDS011;54311;51.726;5.154;2024-01-30T01:37:02;17.48;;;15.63;;
67442;SDS011;54311;51.726;5.154;2024-01-30T01:39:28;17.65;;;16.00;;
67442;SDS011;54311;51.726;5.154;2024-01-30T01:41:53;18.63;;;16.13;;
67442;SDS011;54311;51.726;5.154;2024-01-30T01:44:18;19.00;;;16.10;;
67442;SDS011;54311;51.726;5.154;2024-01-30T01:46:44;17.15;;;15.45;;
67442;SDS011;54311;51.726;5.154;2024-01-30T01:49:09;20.08;;;16.20;;
67442;SDS011;54311;51.726;5.154;2024-01-30T01:51:35;17.95;;;16.25;;
67442;SDS011;54311;51.726;5.154;2024-01-30T01:54:02;17.52;;;16.02;;
67442;SDS011;54311;51.726;5.154;2024-01-30T01:56:29;18.23;;;16.50;;
67442;SDS011;54311;51.726;5.154;2024-01-30T01:58:55;18.65;;;16.75;;
67442;SDS011;54311;51.726;5.154;2024-01-30T02:01:24;18.85;;;16.52;;
67442;SDS011;54311;51.726;5.154;2024-01-30T02:03:50;17.77;;;16.20;;
67442;SDS011;54311;51.726;5.154;2024-01-30T02:06:15;17.08;;;15.32;;
67442;SDS011;54311;51.726;5.154;2024-01-30T02:08:41;18.83;;;16.58;;
67442;SDS011;54311;51.726;5.154;2024-01-30T02:11:06;17.17;;;15.48;;
67442;SDS011;54311;51.726;5.154;2024-01-30T02:13:32;16.77;;;15.27;;
67442;SDS011;54311;51.726;5.154;2024-01-30T02:15:57;17.35;;;15.65;;
67442;SDS011;54311;51.726;5.154;2024-01-30T02:18:23;17.90;;;16.17;;
67442;SDS011;54311;51.726;5.154;2024-01-30T02:20:48;16.92;;;15.43;;
67442;SDS011;54311;51.726;5.154;2024-01-30T02:23:15;17.10;;;15.30;;
67442;SDS011;54311;51.726;5.154;2024-01-30T02:25:41;17.48;;;15.70;;
67442;SDS011;54311;51.726;5.154;2024-01-30T02:28:10;16.77;;;15.25;;
67442;SDS011;54311;51.726;5.154;2024-01-30T02:30:36;17.15;;;15.38;;
67442;SDS011;54311;51.726;5.154;2024-01-30T02:33:01;16.40;;;14.88;;
67442;SDS011;54311;51.726;5.154;2024-01-30T02:35:26;17.58;;;16.00;;
67442;SDS011;54311;51.726;5.154;2024-01-30T02:37:52;17.08;;;15.52;;
67442;SDS011;54311;51.726;5.154;2024-01-30T02:40:17;16.73;;;14.90;;
67442;SDS011;54311;51.726;5.154;2024-01-30T02:42:43;17.45;;;15.57;;
67442;SDS011;54311;51.726;5.154;2024-01-30T02:45:09;20.10;;;15.45;;
67442;SDS011;54311;51.726;5.154;2024-01-30T02:47:35;17.42;;;15.60;;
67442;SDS011;54311;51.726;5.154;2024-01-30T02:50:00;16.77;;;15.18;;
67442;SDS011;54311;51.726;5.154;2024-01-30T02:52:25;15.82;;;14.43;;
67442;SDS011;54311;51.726;5.154;2024-01-30T02:54:51;16.75;;;15.25;;
67442;SDS011;54311;51.726;5.154;2024-01-30T02:57:16;17.45;;;15.73;;
67442;SDS011;54311;51.726;5.154;2024-01-30T02:59:41;17.05;;;15.30;;
67442;SDS011;54311;51.726;5.154;2024-01-30T03:02:07;16.75;;;14.93;;
67442;SDS011;54311;51.726;5.154;2024-01-30T03:04:32;17.00;;;15.45;;
67442;SDS011;54311;51.726;5.154;2024-01-30T03:06:57;19.17;;;15.32;;
67442;SDS011;54311;51.726;5.154;2024-01-30T03:09:23;17.40;;;15.70;;
67442;SDS011;54311;51.726;5.154;2024-01-30T03:11:48;16.65;;;15.10;;
67442;SDS011;54311;51.726;5.154;2024-01-30T03:14:13;19.17;;;15.63;;
67442;SDS011;54311;51.726;5.154;2024-01-30T03:16:39;16.60;;;14.98;;
67442;SDS011;54311;51.726;5.154;2024-01-30T03:19:05;17.83;;;16.00;;
67442;SDS011;54311;51.726;5.154;2024-01-30T03:21:32;18.27;;;16.45;;
67442;SDS011;54311;51.726;5.154;2024-01-30T03:23:58;16.48;;;14.82;;
67442;SDS011;54311;51.726;5.154;2024-01-30T03:26:24;17.42;;;15.73;;
67442;SDS011;54311;51.726;5.154;2024-01-30T03:28:49;16.75;;;15.23;;
67442;SDS011;54311;51.726;5.154;2024-01-30T03:31:15;17.35;;;15.45;;
67442;SDS011;54311;51.726;5.154;2024-01-30T03:33:41;17.10;;;15.38;;
67442;SDS011;54311;51.726;5.154;2024-01-30T03:36:06;17.65;;;15.88;;
67442;SDS011;54311;51.726;5.154;2024-01-30T03:38:32;18.45;;;16.20;;
67442;SDS011;54311;51.726;5.154;2024-01-30T03:40:58;16.98;;;15.32;;
67442;SDS011;54311;51.726;5.154;2024-01-30T03:43:24;16.88;;;15.10;;
67442;SDS011;54311;51.726;5.154;2024-01-30T03:45:49;17.65;;;15.75;;
67442;SDS011;54311;51.726;5.154;2024-01-30T03:48:14;18.17;;;16.38;;
67442;SDS011;54311;51.726;5.154;2024-01-30T03:50:40;17.65;;;15.45;;
67442;SDS011;54311;51.726;5.154;2024-01-30T03:53:05;16.55;;;14.93;;
67442;SDS011;54311;51.726;5.154;2024-01-30T03:55:30;15.30;;;13.82;;
67442;SDS011;54311;51.726;5.154;2024-01-30T03:57:56;17.20;;;15.40;;
67442;SDS011;54311;51.726;5.154;2024-01-30T04:00:21;16.58;;;14.85;;
67442;SDS011;54311;51.726;5.154;2024-01-30T04:02:46;17.25;;;15.63;;
67442;SDS011;54311;51.726;5.154;2024-01-30T04:05:12;17.00;;;14.93;;
67442;SDS011;54311;51.726;5.154;2024-01-30T04:07:37;19.55;;;15.60;;
67442;SDS011;54311;51.726;5.154;2024-01-30T04:10:02;17.80;;;13.88;;
67442;SDS011;54311;51.726;5.154;2024-01-30T04:12:30;15.82;;;13.90;;
67442;SDS011;54311;51.726;5.154;2024-01-30T04:14:56;15.50;;;14.00;;
67442;SDS011;54311;51.726;5.154;2024-01-30T04:17:21;15.85;;;14.32;;
67442;SDS011;54311;51.726;5.154;2024-01-30T04:19:47;15.25;;;13.88;;
67442;SDS011;54311;51.726;5.154;2024-01-30T04:22:12;15.95;;;14.43;;
67442;SDS011;54311;51.726;5.154;2024-01-30T04:24:37;14.55;;;13.25;;
67442;SDS011;54311;51.726;5.154;2024-01-30T04:27:03;16.60;;;14.95;;
67442;SDS011;54311;51.726;5.154;2024-01-30T04:29:28;15.25;;;13.88;;
67442;SDS011;54311;51.726;5.154;2024-01-30T04:31:54;15.60;;;14.18;;
67442;SDS011;54311;51.726;5.154;2024-01-30T04:34:19;15.35;;;13.75;;
67442;SDS011;54311;51.726;5.154;2024-01-30T04:36:45;15.65;;;14.05;;
67442;SDS011;54311;51.726;5.154;2024-01-30T04:39:11;14.75;;;13.43;;
67442;SDS011;54311;51.726;5.154;2024-01-30T04:41:36;17.13;;;12.80;;
67442;SDS011;54311;51.726;5.154;2024-01-30T04:44:01;15.15;;;13.43;;
67442;SDS011;54311;51.726;5.154;2024-01-30T04:46:27;14.65;;;13.20;;
67442;SDS011;54311;51.726;5.154;2024-01-30T04:48:52;16.48;;;13.57;;
67442;SDS011;54311;51.726;5.154;2024-01-30T04:51:17;17.10;;;14.05;;
67442;SDS011;54311;51.726;5.154;2024-01-30T04:53:43;17.02;;;15.13;;
67442;SDS011;54311;51.726;5.154;2024-01-30T04:56:08;14.43;;;12.93;;
67442;SDS011;54311;51.726;5.154;2024-01-30T04:58:33;14.63;;;13.15;;
67442;SDS011;54311;51.726;5.154;2024-01-30T05:00:59;16.13;;;12.38;;
67442;SDS011;54311;51.726;5.154;2024-01-30T05:03:24;13.32;;;12.13;;
67442;SDS011;54311;51.726;5.154;2024-01-30T05:05:49;14.73;;;13.15;;
67442;SDS011;54311;51.726;5.154;2024-01-30T05:08:15;13.50;;;12.35;;
67442;SDS011;54311;51.726;5.154;2024-01-30T05:10:40;14.10;;;12.85;;
67442;SDS011;54311;51.726;5.154;2024-01-30T05:13:06;15.02;;;13.38;;
67442;SDS011;54311;51.726;5.154;2024-01-30T05:15:31;15.73;;;13.93;;
67442;SDS011;54311;51.726;5.154;2024-01-30T05:17:56;15.40;;;12.55;;
67442;SDS011;54311;51.726;5.154;2024-01-30T05:20:22;14.80;;;12.80;;
67442;SDS011;54311;51.726;5.154;2024-01-30T05:22:47;16.67;;;13.07;;
67442;SDS011;54311;51.726;5.154;2024-01-30T05:25:12;14.50;;;13.00;;
67442;SDS011;54311;51.726;5.154;2024-01-30T05:27:38;16.52;;;13.82;;
67442;SDS011;54311;51.726;5.154;2024-01-30T05:30:04;15.50;;;12.93;;
67442;SDS011;54311;51.726;5.154;2024-01-30T05:32:33;13.93;;;12.10;;
67442;SDS011;54311;51.726;5.154;2024-01-30T05:34:58;14.20;;;12.25;;
67442;SDS011;54311;51.726;5.154;2024-01-30T05:37:23;14.10;;;12.43;;
67442;SDS011;54311;51.726;5.154;2024-01-30T05:39:49;13.98;;;12.55;;
67442;SDS011;54311;51.726;5.154;2024-01-30T05:42:14;14.23;;;12.70;;
67442;SDS011;54311;51.726;5.154;2024-01-30T05:44:41;13.95;;;12.57;;
67442;SDS011;54311;51.726;5.154;2024-01-30T05:47:07;15.00;;;12.85;;
67442;SDS011;54311;51.726;5.154;2024-01-30T05:49:32;15.75;;;12.82;;
67442;SDS011;54311;51.726;5.154;2024-01-30T05:51:58;14.15;;;12.82;;
67442;SDS011;54311;51.726;5.154;2024-01-30T05:54:23;14.15;;;12.75;;
67442;SDS011;54311;51.726;5.154;2024-01-30T05:56:48;14.45;;;11.18;;
67442;SDS011;54311;51.726;5.154;2024-01-30T05:59:14;14.63;;;13.10;;
67442;SDS011;54311;51.726;5.154;2024-01-30T06:01:45;13.70;;;12.30;;
67442;SDS011;54311;51.726;5.154;2024-01-30T06:04:11;12.93;;;11.63;;
67442;SDS011;54311;51.726;5.154;2024-01-30T06:06:36;13.45;;;12.05;;
67442;SDS011;54311;51.726;5.154;2024-01-30T06:09:02;14.65;;;12.25;;
67442;SDS011;54311;51.726;5.154;2024-01-30T06:11:27;12.38;;;11.13;;
67442;SDS011;54311;51.726;5.154;2024-01-30T06:13:52;13.82;;;12.52;;
67442;SDS011;54311;51.726;5.154;2024-01-30T06:16:18;13.93;;;12.55;;
67442;SDS011;54311;51.726;5.154;2024-01-30T06:18:45;13.52;;;12.23;;
67442;SDS011;54311;51.726;5.154;2024-01-30T06:21:11;15.93;;;12.25;;
67442;SDS011;54311;51.726;5.154;2024-01-30T06:23:36;13.75;;;12.35;;
67442;SDS011;54311;51.726;5.154;2024-01-30T06:26:02;12.82;;;11.60;;
67442;SDS011;54311;51.726;5.154;2024-01-30T06:28:27;14.35;;;11.95;;
67442;SDS011;54311;51.726;5.154;2024-01-30T06:30:52;14.98;;;12.05;;
67442;SDS011;54311;51.726;5.154;2024-01-30T06:33:18;13.38;;;12.02;;
67442;SDS011;54311;51.726;5.154;2024-01-30T06:35:43;14.90;;;11.93;;
67442;SDS011;54311;51.726;5.154;2024-01-30T06:38:10;21.60;;;12.60;;
67442;SDS011;54311;51.726;5.154;2024-01-30T06:40:36;13.60;;;12.02;;
67442;SDS011;54311;51.726;5.154;2024-01-30T06:43:01;13.35;;;12.10;;
67442;SDS011;54311;51.726;5.154;2024-01-30T06:45:26;13.52;;;12.32;;
67442;SDS011;54311;51.726;5.154;2024-01-30T06:47:52;14.27;;;11.50;;
67442;SDS011;54311;51.726;5.154;2024-01-30T06:50:17;14.15;;;12.82;;
67442;SDS011;54311;51.726;5.154;2024-01-30T06:52:43;16.42;;;12.68;;
67442;SDS011;54311;51.726;5.154;2024-01-30T06:55:08;12.98;;;11.70;;
67442;SDS011;54311;51.726;5.154;2024-01-30T06:57:34;13.07;;;11.75;;
67442;SDS011;54311;51.726;5.154;2024-01-30T06:59:59;13.95;;;12.73;;
67442;SDS011;54311;51.726;5.154;2024-01-30T07:02:25;15.30;;;12.68;;
67442;SDS011;54311;51.726;5.154;2024-01-30T07:04:50;17.50;;;11.90;;
67442;SDS011;54311;51.726;5.154;2024-01-30T07:07:15;14.73;;;13.13;;
67442;SDS011;54311;51.726;5.154;2024-01-30T07:09:41;15.50;;;12.05;;
67442;SDS011;54311;51.726;5.154;2024-01-30T07:12:06;14.90;;;13.13;;
67442;SDS011;54311;51.726;5.154;2024-01-30T07:14:32;20.67;;;12.25;;
67442;SDS011;54311;51.726;5.154;2024-01-30T07:16:57;17.45;;;11.52;;
67442;SDS011;54311;51.726;5.154;2024-01-30T07:19:23;15.88;;;12.10;;
67442;SDS011;54311;51.726;5.154;2024-01-30T07:21:48;13.13;;;11.73;;
67442;SDS011;54311;51.726;5.154;2024-01-30T07:24:13;13.57;;;11.90;;
67442;SDS011;54311;51.726;5.154;2024-01-30T07:26:39;15.35;;;12.13;;
67442;SDS011;54311;51.726;5.154;2024-01-30T07:29:04;16.85;;;13.50;;
67442;SDS011;54311;51.726;5.154;2024-01-30T07:31:29;14.00;;;12.75;;
67442;SDS011;54311;51.726;5.154;2024-01-30T07:33:55;16.23;;;13.75;;
67442;SDS011;54311;51.726;5.154;2024-01-30T07:36:20;13.00;;;11.82;;
67442;SDS011;54311;51.726;5.154;2024-01-30T07:38:45;20.23;;;12.70;;
67442;SDS011;54311;51.726;5.154;2024-01-30T07:41:11;16.85;;;12.57;;
67442;SDS011;54311;51.726;5.154;2024-01-30T07:43:37;15.07;;;12.93;;
67442;SDS011;54311;51.726;5.154;2024-01-30T07:46:03;14.23;;;12.13;;
67442;SDS011;54311;51.726;5.154;2024-01-30T07:48:29;14.20;;;11.52;;
67442;SDS011;54311;51.726;5.154;2024-01-30T07:50:54;14.65;;;13.13;;
67442;SDS011;54311;51.726;5.154;2024-01-30T07:53:19;14.35;;;12.48;;
67442;SDS011;54311;51.726;5.154;2024-01-30T07:55:46;18.38;;;12.68;;
67442;SDS011;54311;51.726;5.154;2024-01-30T07:58:11;20.15;;;11.98;;
67442;SDS011;54311;51.726;5.154;2024-01-30T08:00:37;16.58;;;12.98;;
67442;SDS011;54311;51.726;5.154;2024-01-30T08:03:03;20.00;;;12.75;;
67442;SDS011;54311;51.726;5.154;2024-01-30T08:05:28;14.25;;;12.75;;
67442;SDS011;54311;51.726;5.154;2024-01-30T08:07:54;16.83;;;13.07;;
67442;SDS011;54311;51.726;5.154;2024-01-30T08:10:19;15.43;;;12.60;;
67442;SDS011;54311;51.726;5.154;2024-01-30T08:12:45;17.48;;;13.55;;
67442;SDS011;54311;51.726;5.154;2024-01-30T08:15:11;19.42;;;12.80;;
67442;SDS011;54311;51.726;5.154;2024-01-30T08:17:37;16.58;;;13.55;;
67442;SDS011;54311;51.726;5.154;2024-01-30T08:20:02;15.38;;;12.43;;
67442;SDS011;54311;51.726;5.154;2024-01-30T08:22:29;23.30;;;12.90;;
67442;SDS011;54311;51.726;5.154;2024-01-30T08:24:55;13.88;;;12.25;;
67442;SDS011;54311;51.726;5.154;2024-01-30T08:27:20;18.67;;;12.82;;
67442;SDS011;54311;51.726;5.154;2024-01-30T08:29:46;14.90;;;13.35;;
67442;SDS011;54311;51.726;5.154;2024-01-30T08:32:11;19.45;;;12.98;;
67442;SDS011;54311;51.726;5.154;2024-01-30T08:34:36;16.42;;;12.27;;
67442;SDS011;54311;51.726;5.154;2024-01-30T08:37:02;17.25;;;12.55;;
67442;SDS011;54311;51.726;5.154;2024-01-30T08:39:28;20.65;;;13.88;;
67442;SDS011;54311;51.726;5.154;2024-01-30T08:41:53;13.85;;;12.43;;
67442;SDS011;54311;51.726;5.154;2024-01-30T08:44:19;17.88;;;12.88;;
67442;SDS011;54311;51.726;5.154;2024-01-30T08:46:44;17.20;;;13.80;;
67442;SDS011;54311;51.726;5.154;2024-01-30T08:49:10;19.30;;;13.25;;
67442;SDS011;54311;51.726;5.154;2024-01-30T08:51:38;20.05;;;12.75;;
67442;SDS011;54311;51.726;5.154;2024-01-30T08:54:04;16.83;;;12.35;;
67442;SDS011;54311;51.726;5.154;2024-01-30T08:56:29;19.23;;;13.57;;
67442;SDS011;54311;51.726;5.154;2024-01-30T08:58:55;21.40;;;12.65;;
67442;SDS011;54311;51.726;5.154;2024-01-30T09:01:20;15.93;;;13.73;;
67442;SDS011;54311;51.726;5.154;2024-01-30T09:03:45;20.52;;;13.45;;
67442;SDS011;54311;51.726;5.154;2024-01-30T09:06:12;19.95;;;12.25;;
67442;SDS011;54311;51.726;5.154;2024-01-30T09:08:37;20.23;;;12.85;;
67442;SDS011;54311;51.726;5.154;2024-01-30T09:11:13;16.67;;;12.30;;
67442;SDS011;54311;51.726;5.154;2024-01-30T09:13:39;12.70;;;11.43;;
67442;SDS011;54311;51.726;5.154;2024-01-30T09:16:05;16.60;;;12.70;;
67442;SDS011;54311;51.726;5.154;2024-01-30T09:18:30;16.88;;;11.75;;
67442;SDS011;54311;51.726;5.154;2024-01-30T09:20:56;17.58;;;12.95;;
67442;SDS011;54311;51.726;5.154;2024-01-30T09:23:21;22.00;;;13.02;;
67442;SDS011;54311;51.726;5.154;2024-01-30T09:25:47;16.60;;;13.10;;
67442;SDS011;54311;51.726;5.154;2024-01-30T09:28:12;16.08;;;13.30;;
67442;SDS011;54311;51.726;5.154;2024-01-30T09:30:37;18.95;;;12.60;;
67442;SDS011;54311;51.726;5.154;2024-01-30T09:33:03;20.90;;;13.05;;
67442;SDS011;54311;51.726;5.154;2024-01-30T09:35:28;21.13;;;12.55;;
67442;SDS011;54311;51.726;5.154;2024-01-30T09:37:54;20.42;;;12.40;;
67442;SDS011;54311;51.726;5.154;2024-01-30T09:40:20;17.23;;;12.73;;
67442;SDS011;54311;51.726;5.154;2024-01-30T09:42:46;18.95;;;13.45;;
67442;SDS011;54311;51.726;5.154;2024-01-30T09:45:13;15.57;;;13.88;;
67442;SDS011;54311;51.726;5.154;2024-01-30T09:47:43;14.60;;;12.45;;
67442;SDS011;54311;51.726;5.154;2024-01-30T09:50:09;25.45;;;13.95;;
67442;SDS011;54311;51.726;5.154;2024-01-30T09:52:35;16.13;;;13.18;;
67442;SDS011;54311;51.726;5.154;2024-01-30T09:55:02;15.82;;;12.50;;
67442;SDS011;54311;51.726;5.154;2024-01-30T09:57:28;18.80;;;13.30;;
67442;SDS011;54311;51.726;5.154;2024-01-30T09:59:53;14.50;;;13.05;;
67442;SDS011;54311;51.726;5.154;2024-01-30T10:02:22;18.20;;;13.95;;
67442;SDS011;54311;51.726;5.154;2024-01-30T10:04:48;20.83;;;13.77;;
67442;SDS011;54311;51.726;5.154;2024-01-30T10:07:14;15.82;;;13.98;;
67442;SDS011;54311;51.726;5.154;2024-01-30T10:09:40;19.67;;;14.13;;
67442;SDS011;54311;51.726;5.154;2024-01-30T10:12:06;18.70;;;14.07;;
67442;SDS011;54311;51.726;5.154;2024-01-30T10:14:31;16.70;;;13.48;;
67442;SDS011;54311;51.726;5.154;2024-01-30T10:16:57;18.92;;;14.45;;
67442;SDS011;54311;51.726;5.154;2024-01-30T10:19:23;18.08;;;13.27;;
67442;SDS011;54311;51.726;5.154;2024-01-30T10:21:48;16.15;;;14.50;;
67442;SDS011;54311;51.726;5.154;2024-01-30T10:24:13;14.82;;;13.25;;
67442;SDS011;54311;51.726;5.154;2024-01-30T10:26:39;15.57;;;13.68;;
67442;SDS011;54311;51.726;5.154;2024-01-30T10:29:04;17.48;;;12.82;;
67442;SDS011;54311;51.726;5.154;2024-01-30T10:31:30;18.55;;;13.32;;
67442;SDS011;54311;51.726;5.154;2024-01-30T10:33:56;19.73;;;13.85;;
67442;SDS011;54311;51.726;5.154;2024-01-30T10:36:21;19.75;;;13.63;;
67442;SDS011;54311;51.726;5.154;2024-01-30T10:38:53;17.38;;;13.48;;
67442;SDS011;54311;51.726;5.154;2024-01-30T10:41:22;21.77;;;13.88;;
67442;SDS011;54311;51.726;5.154;2024-01-30T10:43:55;19.77;;;13.60;;
67442;SDS011;54311;51.726;5.154;2024-01-30T10:46:28;17.38;;;13.38;;
67442;SDS011;54311;51.726;5.154;2024-01-30T10:48:58;21.67;;;13.70;;
67442;SDS011;54311;51.726;5.154;2024-01-30T10:51:25;17.45;;;13.60;;
67442;SDS011;54311;51.726;5.154;2024-01-30T10:53:51;20.25;;;13.60;;
67442;SDS011;54311;51.726;5.154;2024-01-30T10:56:18;17.80;;;13.90;;
67442;SDS011;54311;51.726;5.154;2024-01-30T10:58:45;20.35;;;13.77;;
67442;SDS011;54311;51.726;5.154;2024-01-30T11:01:11;19.20;;;12.65;;
67442;SDS011;54311;51.726;5.154;2024-01-30T11:03:37;15.45;;;13.20;;
67442;SDS011;54311;51.726;5.154;2024-01-30T11:06:02;14.90;;;13.00;;
67442;SDS011;54311;51.726;5.154;2024-01-30T11:08:28;14.68;;;12.85;;
67442;SDS011;54311;51.726;5.154;2024-01-30T11:10:56;14.75;;;12.23;;
67442;SDS011;54311;51.726;5.154;2024-01-30T11:13:26;17.08;;;13.57;;
67442;SDS011;54311;51.726;5.154;2024-01-30T11:15:52;17.90;;;13.27;;
67442;SDS011;54311;51.726;5.154;2024-01-30T11:18:28;22.60;;;14.32;;
67442;SDS011;54311;51.726;5.154;2024-01-30T11:20:58;18.40;;;13.60;;
67442;SDS011;54311;51.726;5.154;2024-01-30T11:23:25;15.32;;;11.57;;
67442;SDS011;54311;51.726;5.154;2024-01-30T11:25:52;16.90;;;11.45;;
67442;SDS011;54311;51.726;5.154;2024-01-30T11:28:18;11.23;;;10.13;;
67442;SDS011;54311;51.726;5.154;2024-01-30T11:30:43;12.93;;;10.45;;
67442;SDS011;54311;51.726;5.154;2024-01-30T11:38:08;9.38;;;6.13;;
67442;SDS011;54311;51.726;5.154;2024-01-30T11:40:36;13.70;;;5.50;;
67442;SDS011;54311;51.726;5.154;2024-01-30T11:43:03;6.97;;;5.10;;
67442;SDS011;54311;51.726;5.154;2024-01-30T11:45:30;9.80;;;5.53;;
67442;SDS011;54311;51.726;5.154;2024-01-30T11:47:56;7.95;;;5.00;;
67442;SDS011;54311;51.726;5.154;2024-01-30T11:50:22;5.30;;;4.80;;
67442;SDS011;54311;51.726;5.154;2024-01-30T11:52:47;10.00;;;5.53;;
67442;SDS011;54311;51.726;5.154;2024-01-30T11:55:13;9.35;;;4.70;;
67442;SDS011;54311;51.726;5.154;2024-01-30T11:57:39;5.63;;;4.53;;
67442;SDS011;54311;51.726;5.154;2024-01-30T12:00:05;4.72;;;4.25;;
67442;SDS011;54311;51.726;5.154;2024-01-30T12:02:39;10.40;;;4.00;;
67442;SDS011;54311;51.726;5.154;2024-01-30T12:05:07;6.40;;;3.45;;
67442;SDS011;54311;51.726;5.154;2024-01-30T12:07:33;6.35;;;3.90;;
67442;SDS011;54311;51.726;5.154;2024-01-30T12:09:59;4.40;;;3.28;;
67442;SDS011;54311;51.726;5.154;2024-01-30T12:12:27;4.80;;;3.70;;
67442;SDS011;54311;51.726;5.154;2024-01-30T12:14:53;3.58;;;3.22;;
67442;SDS011;54311;51.726;5.154;2024-01-30T12:17:32;3.33;;;3.03;;
67442;SDS011;54311;51.726;5.154;2024-01-30T12:20:08;4.00;;;3.10;;
67442;SDS011;54311;51.726;5.154;2024-01-30T12:22:37;3.03;;;2.83;;
67442;SDS011;54311;51.726;5.154;2024-01-30T12:25:07;7.93;;;3.25;;
67442;SDS011;54311;51.726;5.154;2024-01-30T12:27:37;3.60;;;3.08;;
67442;SDS011;54311;51.726;5.154;2024-01-30T12:30:08;3.17;;;3.05;;
67442;SDS011;54311;51.726;5.154;2024-01-30T12:32:35;4.18;;;3.15;;
67442;SDS011;54311;51.726;5.154;2024-01-30T12:35:01;2.78;;;2.58;;
67442;SDS011;54311;51.726;5.154;2024-01-30T12:37:27;4.70;;;2.78;;
67442;SDS011;54311;51.726;5.154;2024-01-30T12:39:52;2.85;;;2.42;;
67442;SDS011;54311;51.726;5.154;2024-01-30T12:42:19;3.50;;;2.80;;
67442;SDS011;54311;51.726;5.154;2024-01-30T12:44:45;2.72;;;2.60;;
67442;SDS011;54311;51.726;5.154;2024-01-30T12:47:11;3.97;;;2.90;;
67442;SDS011;54311;51.726;5.154;2024-01-30T12:49:36;3.60;;;3.00;;
67442;SDS011;54311;51.726;5.154;2024-01-30T12:52:01;5.90;;;3.08;;
67442;SDS011;54311;51.726;5.154;2024-01-30T12:54:27;3.15;;;2.95;;
67442;SDS011;54311;51.726;5.154;2024-01-30T12:56:53;5.03;;;2.70;;
67442;SDS011;54311;51.726;5.154;2024-01-30T12:59:18;3.53;;;2.25;;
67442;SDS011;54311;51.726;5.154;2024-01-30T13:01:44;3.67;;;3.08;;
67442;SDS011;54311;51.726;5.154;2024-01-30T13:04:09;5.53;;;2.97;;
67442;SDS011;54311;51.726;5.154;2024-01-30T13:06:34;4.60;;;3.10;;
67442;SDS011;54311;51.726;5.154;2024-01-30T13:09:00;9.50;;;4.72;;
67442;SDS011;54311;51.726;5.154;2024-01-30T13:11:25;9.85;;;6.85;;
67442;SDS011;54311;51.726;5.154;2024-01-30T13:13:51;8.35;;;6.53;;
67442;SDS011;54311;51.726;5.154;2024-01-30T13:16:16;14.10;;;6.82;;
67442;SDS011;54311;51.726;5.154;2024-01-30T13:18:42;10.98;;;6.82;;
67442;SDS011;54311;51.726;5.154;2024-01-30T13:21:07;14.23;;;7.22;;
67442;SDS011;54311;51.726;5.154;2024-01-30T13:23:32;13.80;;;7.57;;
67442;SDS011;54311;51.726;5.154;2024-01-30T13:25:58;16.98;;;6.90;;
67442;SDS011;54311;51.726;5.154;2024-01-30T13:28:23;10.80;;;7.35;;
67442;SDS011;54311;51.726;5.154;2024-01-30T13:30:50;11.52;;;6.45;;
67442;SDS011;54311;51.726;5.154;2024-01-30T13:33:16;12.38;;;6.60;;
67442;SDS011;54311;51.726;5.154;2024-01-30T13:35:42;13.63;;;6.10;;
67442;SDS011;54311;51.726;5.154;2024-01-30T13:38:07;11.93;;;6.95;;
67442;SDS011;54311;51.726;5.154;2024-01-30T13:40:33;10.48;;;7.18;;
67442;SDS011;54311;51.726;5.154;2024-01-30T13:42:58;9.05;;;6.25;;
67442;SDS011;54311;51.726;5.154;2024-01-30T13:45:23;13.20;;;6.70;;
67442;SDS011;54311;51.726;5.154;2024-01-30T13:47:49;12.85;;;7.40;;
67442;SDS011;54311;51.726;5.154;2024-01-30T13:50:14;12.05;;;7.55;;
67442;SDS011;54311;51.726;5.154;2024-01-30T13:52:41;12.85;;;7.32;;
67442;SDS011;54311;51.726;5.154;2024-01-30T13:55:08;12.13;;;7.20;;
67442;SDS011;54311;51.726;5.154;2024-01-30T13:57:33;13.65;;;6.82;;
67442;SDS011;54311;51.726;5.154;2024-01-30T14:00:00;10.13;;;6.97;;
67442;SDS011;54311;51.726;5.154;2024-01-30T14:02:26;14.43;;;7.20;;
67442;SDS011;54311;51.726;5.154;2024-01-30T14:04:51;13.45;;;6.50;;
67442;SDS011;54311;51.726;5.154;2024-01-30T14:07:17;12.77;;;6.38;;
67442;SDS011;54311;51.726;5.154;2024-01-30T14:09:43;7.00;;;6.38;;
67442;SDS011;54311;51.726;5.154;2024-01-30T14:12:09;11.88;;;6.30;;
67442;SDS011;54311;51.726;5.154;2024-01-30T14:14:34;9.00;;;6.03;;
67442;SDS011;54311;51.726;5.154;2024-01-30T14:17:00;6.70;;;5.07;;
67442;SDS011;54311;51.726;5.154;2024-01-30T14:19:25;8.30;;;5.40;;
67442;SDS011;54311;51.726;5.154;2024-01-30T14:21:51;7.25;;;4.93;;
67442;SDS011;54311;51.726;5.154;2024-01-30T14:24:16;10.23;;;4.72;;